Portada
METAR-TAF:

METAR-TAF

Aeroports :

Termez, Uzbekistan

latitud: 37-14N, longitud: 067-16E, altitud: 302 m

Observació

L'informe es va fer fa 50 minuts, a les 15:00 UTC
Vent 4 kt del Oest/Sud-Oest
Temperatura 10°C
Humitat 53%
Pressió 1025 hPa
Visibilitat: 5000 m
fum

METAR: UTST 131500Z 24004KT 5000 FU NSC 10/01 Q1025 R88/CLRD70 NOSIG

Hora: 20:50 (15:50 UTC)

Pronòstic

L'informe es va fer fa 4 hores i 50 minuts, a les 11:00 UTC
Pronòstic vàlid del 13 a les 12 UTC al 14 a les 12 UTC
Vent 6 kt amb direcció variable
Visibilitat: 6000 m
Núvols disperses a una alçada de 5000 ft, Cumulonimbus.
Núvols disperses a una alçada de 10000 ft
Temporalment
l' 13 a les 14 UTC al 13 a les 24 UTC
Vent 6 kt del Nord/Nord-Est amb ràfegues de 16 kt
Visibilitat: 2000 m
boirina, fum

TAF: UTST 131100Z 1312/1412 VRB06KT 6000 SCT050CB SCT100 TEMPO 1314/1324 03006G16KT 2000 BR FU

Observacions i pronòstics meteorològics de més de 4000 aeroports (METAR i TAF).

Les estacions disponibles són els punts grocs i vermells al mapa.

Posi el ratolí al punt desitjat per veure el nom de l'estació.

Feu clic per veure les observacions i els pronòstics meteorològics.

Per canviar el mapa: feu clic els botons verds amb una creu de color negre per apropar; al botó verd amb un guió per allunyar la imatge; o en les fletxes verdes per a mapes adjacents.


METAR-TAF: